Time;durP1;ratioP1;P1;durP2;ratioP2;P2;SDS_P1;SDS_P2;PMS_P1;PMS_P2;Temp;Humidity;BMP_temperature;BMP_pressure;BME280_temperature;BME280_humidity;BME280_pressure;Samples;Min_cycle;Max_cycle;Signal;HPM_P1;HPM_P2
2021/05/17 00:01:59;;;;;;;;;;;;;;;13.13;62.90;97036.17;1719833;81;26209;-83
2021/05/17 00:04:33;;;;;;;;;;;;;;;13.20;62.89;97043.77;1718203;81;23795;-83
2021/05/17 00:06:57;;;;;;;;;;;;;;;13.24;62.91;97040.67;1715334;81;20243;-83
2021/05/17 00:09:28;;;;;;;;;;;;;;;13.25;62.95;97038.87;1711066;82;24772;-83
2021/05/17 00:11:54;;;;;;;;;;;;;;;13.24;62.97;97039.84;1713598;82;22011;-83
2021/05/17 00:14:21;;;;;;;;;;;;;;;13.25;63.02;97035.75;1716578;83;25947;-83
2021/05/17 00:16:48;;;;;;;;;;;;;;;13.25;63.10;97030.98;1715300;83;24415;-83
2021/05/17 00:19:14;;;;;;;;;;;;;;;13.27;63.15;97017.18;1717899;82;20308;-84
2021/05/17 00:21:46;;;;;;;;;;;;;;;13.28;63.25;97018.83;1719644;83;20396;-84
2021/05/17 00:24:13;;;;;;;;;;;;;;;13.31;63.36;97013.28;1716288;82;22249;-84
2021/05/17 00:26:40;;;;;;;;;;;;;;;13.29;63.44;97006.03;1713151;83;26012;-84
2021/05/17 00:29:09;;;;;;;;;;;;;;;13.27;63.57;97004.05;1716514;81;25154;-84
2021/05/17 00:31:36;;;;;;;;;;;;;;;13.26;63.71;97003.22;1717074;82;20234;-84
2021/05/17 00:34:03;;;;;;;;;;;;;;;13.25;63.79;96992.41;1719252;81;24695;-83
2021/05/17 00:36:31;;;;;;;;;;;;;;;13.24;63.87;96996.49;1713589;83;21993;-84
2021/05/17 00:38:58;;;;;;;;;;;;;;;13.20;63.95;96991.23;1715479;83;26064;-83
2021/05/17 00:41:28;;;;;;;;;;;;;;;13.12;63.98;96983.30;1719281;81;24417;-84
2021/05/17 00:43:54;;;;;;;;;;;;;;;13.12;64.05;96976.73;1717847;81;20352;-84
2021/05/17 00:46:23;;;;;;;;;;;;;;;13.03;64.11;96975.87;1698207;83;24316;-84
2021/05/17 00:48:50;;;;;;;;;;;;;;;12.99;64.16;96980.59;1689461;83;22014;-83
2021/05/17 00:51:17;;;;;;;;;;;;;;;12.96;64.20;96983.55;1693363;84;26030;-83
2021/05/17 00:53:45;;;;;;;;;;;;;;;12.98;64.26;96973.69;1693332;83;20213;-83
2021/05/17 00:56:13;;;;;;;;;;;;;;;13.02;64.29;96973.39;1697926;83;20273;-83
2021/05/17 00:58:40;;;;;;;;;;;;;;;13.03;64.28;96979.80;1683524;84;24703;-83
2021/05/17 01:01:12;;;;;;;;;;;;;;;13.09;64.33;96972.58;1694297;83;22638;-83
2021/05/17 01:03:37;;;;;;;;;;;;;;;13.10;64.35;96970.29;1688435;84;26732;-83
2021/05/17 01:06:04;;;;;;;;;;;;;;;13.08;64.43;96970.96;1691170;83;24379;-83
2021/05/17 01:08:35;;;;;;;;;;;;;;;13.12;64.49;96971.00;1695285;83;20433;-83
2021/05/17 01:11:03;;;;;;;;;;;;;;;13.18;64.53;96972.17;1698045;83;24748;-83
2021/05/17 01:13:29;;;;;;;;;;;;;;;13.10;64.57;96966.84;1693316;83;22979;-83
2021/05/17 01:15:57;;;;;;;;;;;;;;;13.10;64.66;96972.09;1692446;83;26183;-83
2021/05/17 01:18:23;;;;;;;;;;;;;;;13.07;64.75;96977.67;1689944;84;24446;-83
2021/05/17 01:20:50;;;;;;;;;;;;;;;13.04;64.79;96980.63;1693082;83;20303;-83
2021/05/17 01:25:53;;;;;;;;;;;;;;;12.91;64.97;96986.31;1660692;84;22037;-83
2021/05/17 01:28:22;;;;;;;;;;;;;;;12.81;65.11;96978.55;1675797;83;26498;-83
2021/05/17 01:30:53;;;;;;;;;;;;;;;12.78;65.23;96980.65;1667412;83;25288;-83
2021/05/17 01:33:19;;;;;;;;;;;;;;;12.90;65.36;96982.03;1697390;84;20230;-83
2021/05/17 01:35:49;;;;;;;;;;;;;;;12.95;65.50;96976.64;1700047;82;24860;-83
2021/05/17 01:38:18;;;;;;;;;;;;;;;12.91;65.58;96985.82;1672232;82;20221;-83
2021/05/17 01:40:45;;;;;;;;;;;;;;;12.96;65.69;96976.98;1699994;82;26060;-83
2021/05/17 01:43:13;;;;;;;;;;;;;;;12.95;65.78;96971.39;1703340;83;24679;-83
2021/05/17 01:45:40;;;;;;;;;;;;;;;12.93;65.82;96974.65;1707565;82;20685;-83
2021/05/17 01:48:07;;;;;;;;;;;;;;;12.92;65.88;96969.58;1721587;83;24893;-83
2021/05/17 01:50:36;;;;;;;;;;;;;;;12.88;65.93;96971.67;1723169;81;22122;-83
2021/05/17 01:53:11;;;;;;;;;;;;;;;12.89;65.97;96968.08;1724461;83;26112;-83
2021/05/17 01:55:36;;;;;;;;;;;;;;;12.92;65.99;96974.34;1720150;83;24436;-84
2021/05/17 01:58:09;;;;;;;;;;;;;;;12.91;66.03;96968.75;1724467;81;20630;-83
2021/05/17 02:00:35;;;;;;;;;;;;;;;12.88;66.03;96965.11;1725739;83;24841;-83
2021/05/17 02:03:02;;;;;;;;;;;;;;;12.94;66.09;96966.28;1719708;81;22078;-84
2021/05/17 02:05:28;;;;;;;;;;;;;;;12.92;66.10;96963.84;1694945;83;26028;-84
2021/05/17 02:07:54;;;;;;;;;;;;;;;12.95;66.14;96967.45;1726599;81;24218;-84
2021/05/17 02:10:20;;;;;;;;;;;;;;;12.94;66.16;96963.17;1726528;83;20300;-83
2021/05/17 02:12:48;;;;;;;;;;;;;;;12.94;66.20;96964.48;1722970;82;20303;-83
2021/05/17 02:15:17;;;;;;;;;;;;;;;12.93;66.23;96957.58;1729273;82;22075;-84
2021/05/17 02:17:43;;;;;;;;;;;;;;;12.94;66.24;96958.41;1710243;83;26051;-83
2021/05/17 02:20:12;;;;;;;;;;;;;;;12.89;66.28;96948.38;1685790;83;24716;-84
2021/05/17 02:22:40;;;;;;;;;;;;;;;12.98;66.27;96957.14;1702097;83;20291;-83
2021/05/17 02:25:08;;;;;;;;;;;;;;;12.98;66.28;96959.24;1726257;81;24776;-83
2021/05/17 02:27:35;;;;;;;;;;;;;;;13.02;66.29;96961.57;1722752;81;22037;-83
2021/05/17 02:30:01;;;;;;;;;;;;;;;13.05;66.33;96969.12;1718724;82;26022;-83
2021/05/17 02:32:27;;;;;;;;;;;;;;;13.05;66.31;96966.49;1727170;83;24387;-83
2021/05/17 02:34:54;;;;;;;;;;;;;;;13.04;66.33;96967.50;1720053;82;20280;-83
2021/05/17 02:37:20;;;;;;;;;;;;;;;12.97;66.34;96974.70;1691232;82;24733;-83
2021/05/17 02:39:47;;;;;;;;;;;;;;;12.93;66.36;96978.59;1682956;83;22122;-83
2021/05/17 02:42:16;;;;;;;;;;;;;;;12.86;66.38;96976.28;1688895;83;21357;-83
2021/05/17 02:44:42;;;;;;;;;;;;;;;12.69;66.45;96973.23;1719507;81;24526;-83
2021/05/17 02:47:09;;;;;;;;;;;;;;;12.53;66.56;96973.97;1702252;82;20294;-84
2021/05/17 02:49:36;;;;;;;;;;;;;;;12.40;66.64;96974.03;1681994;84;24900;-84
2021/05/17 02:52:02;;;;;;;;;;;;;;;12.31;66.74;96976.27;1679993;83;22002;-83
2021/05/17 02:54:30;;;;;;;;;;;;;;;12.21;66.83;96982.11;1700235;83;26021;-83
2021/05/17 02:57:08;;;;;;;;;;;;;;;12.14;66.92;96983.20;1699723;83;24524;-83
2021/05/17 02:59:36;;;;;;;;;;;;;;;12.06;67.05;96980.01;1690895;84;20257;-83
2021/05/17 03:02:03;;;;;;;;;;;;;;;12.00;67.19;96987.17;1678032;83;24909;-84
2021/05/17 03:04:32;;;;;;;;;;;;;;;11.94;67.34;96993.05;1695615;83;22582;-84
2021/05/17 03:07:03;;;;;;;;;;;;;;;11.91;67.49;96997.26;1682018;83;25953;-84
2021/05/17 03:09:29;;;;;;;;;;;;;;;11.90;67.61;97004.78;1680333;83;24613;-84
2021/05/17 03:11:59;;;;;;;;;;;;;;;11.95;67.75;97014.33;1687057;83;20661;-84
2021/05/17 03:14:27;;;;;;;;;;;;;;;12.02;67.87;97014.07;1697005;83;24825;-84
2021/05/17 03:16:54;;;;;;;;;;;;;;;12.02;68.02;97002.75;1689382;83;21996;-84
2021/05/17 03:19:23;;;;;;;;;;;;;;;11.99;68.14;96998.66;1705327;83;25924;-84
2021/05/17 03:21:51;;;;;;;;;;;;;;;12.00;68.28;97000.79;1701433;83;24639;-84
2021/05/17 03:24:17;;;;;;;;;;;;;;;12.11;68.41;97007.91;1696074;83;20783;-84
2021/05/17 03:26:43;;;;;;;;;;;;;;;12.23;68.57;97013.75;1682367;83;20579;-83
2021/05/17 03:29:12;;;;;;;;;;;;;;;12.33;68.69;97011.85;1700598;83;21990;-84
2021/05/17 03:31:37;;;;;;;;;;;;;;;12.41;68.79;97023.73;1681433;84;26783;-84
2021/05/17 03:34:03;;;;;;;;;;;;;;;12.47;68.88;97029.69;1699557;83;20269;-83
2021/05/17 03:36:31;;;;;;;;;;;;;;;12.46;68.95;97033.28;1675440;83;20199;-83
2021/05/17 03:38:59;;;;;;;;;;;;;;;12.36;69.02;97038.28;1692151;83;24976;-84
2021/05/17 03:41:25;;;;;;;;;;;;;;;12.21;69.10;97037.19;1702064;83;21956;-84
2021/05/17 03:43:51;;;;;;;;;;;;;;;12.11;69.18;97036.76;1672514;83;21014;-84
2021/05/17 03:46:17;;;;;;;;;;;;;;;12.04;69.27;97039.66;1696933;83;20325;-84
2021/05/17 03:48:43;;;;;;;;;;;;;;;11.96;69.37;97033.02;1709807;81;20336;-84
2021/05/17 03:51:10;;;;;;;;;;;;;;;11.89;69.48;97037.20;1692534;82;25639;-83
2021/05/17 03:53:36;;;;;;;;;;;;;;;11.88;69.57;97037.38;1734807;81;22067;-84
2021/05/17 03:56:02;;;;;;;;;;;;;;;11.88;69.70;97038.69;1735910;81;26024;-83
2021/05/17 03:58:28;;;;;;;;;;;;;;;11.89;69.83;97037.72;1716555;81;24510;-83
2021/05/17 04:00:57;;;;;;;;;;;;;;;11.90;69.96;97034.10;1713259;81;20401;-84
2021/05/17 04:03:22;;;;;;;;;;;;;;;11.93;70.09;97029.41;1695179;83;25538;-83
2021/05/17 04:06:41;;;;;;;;;;;;;;;11.92;70.21;97034.30;1717305;81;21904;-84
2021/05/17 04:12:30;;;;;;;;;;;;;;;11.88;70.30;97033.45;1721256;83;25479;-84
2021/05/17 04:13:38;;;;;;;;;;;;;;;11.87;70.52;97048.34;1725861;81;20285;-83
2021/05/17 04:16:04;;;;;;;;;;;;;;;11.95;70.65;97045.79;1717025;82;24838;-83
2021/05/17 04:18:30;;;;;;;;;;;;;;;11.99;70.77;97047.64;1717254;81;22079;-83
2021/05/17 04:20:58;;;;;;;;;;;;;;;12.05;70.87;97053.12;1723361;81;26651;-84
2021/05/17 04:23:28;;;;;;;;;;;;;;;12.16;70.96;97050.23;1714673;83;24472;-84
2021/05/17 04:25:55;;;;;;;;;;;;;;;12.18;71.05;97050.58;1721624;81;20323;-84
2021/05/17 04:28:21;;;;;;;;;;;;;;;12.24;71.12;97059.16;1722132;82;24862;-84
2021/05/17 04:30:47;;;;;;;;;;;;;;;12.37;71.22;97056.98;1720917;82;21875;-85
2021/05/17 04:33:13;;;;;;;;;;;;;;;12.47;71.32;97059.03;1717434;83;21046;-85
2021/05/17 04:35:39;;;;;;;;;;;;;;;12.49;71.40;97062.34;1726118;81;24378;-84
2021/05/17 04:38:06;;;;;;;;;;;;;;;12.45;71.45;97057.03;1724312;81;20215;-84
2021/05/17 04:40:34;;;;;;;;;;;;;;;12.42;71.47;97057.36;1725844;82;24801;-84
2021/05/17 04:43:00;;;;;;;;;;;;;;;12.41;71.54;97053.08;1720906;83;22100;-84
2021/05/17 04:45:26;;;;;;;;;;;;;;;12.39;71.61;97049.77;1722254;82;25905;-85
2021/05/17 04:47:53;;;;;;;;;;;;;;;12.38;71.69;97052.09;1728694;81;24974;-83
2021/05/17 04:50:20;;;;;;;;;;;;;;;12.37;71.74;97046.01;1732997;81;20592;-83
2021/05/17 04:52:46;;;;;;;;;;;;;;;12.35;71.82;97043.19;1727743;82;24788;-84
2021/05/17 04:55:12;;;;;;;;;;;;;;;12.32;71.89;97044.81;1728920;81;22065;-84
2021/05/17 04:57:38;;;;;;;;;;;;;;;12.34;71.95;97041.53;1724036;81;26065;-84
2021/05/17 05:00:06;;;;;;;;;;;;;;;12.35;72.05;97049.75;1729878;82;24400;-84
2021/05/17 05:02:35;;;;;;;;;;;;;;;12.35;72.12;97044.02;1727801;81;20227;-84
2021/05/17 05:05:01;;;;;;;;;;;;;;;12.37;72.21;97045.19;1734394;82;25456;-85
2021/05/17 05:07:27;;;;;;;;;;;;;;;12.36;72.29;97052.71;1711621;82;20789;-87
2021/05/17 05:09:53;;;;;;;;;;;;;;;12.37;72.34;97042.08;1694274;83;26031;-87
2021/05/17 05:12:19;;;;;;;;;;;;;;;12.36;72.44;97043.53;1699802;83;20328;-86
2021/05/17 05:14:45;;;;;;;;;;;;;;;12.34;72.53;97034.98;1710386;83;20408;-86
2021/05/17 05:17:11;;;;;;;;;;;;;;;12.32;72.59;97036.95;1721230;82;24753;-87
2021/05/17 05:19:38;;;;;;;;;;;;;;;12.32;72.68;97043.02;1727536;81;22105;-86
2021/05/17 05:22:04;;;;;;;;;;;;;;;12.33;72.75;97045.95;1727645;82;26560;-87
2021/05/17 05:24:30;;;;;;;;;;;;;;;12.33;72.82;97045.95;1726032;82;24561;-86
2021/05/17 05:27:07;;;;;;;;;;;;;;;12.38;72.91;97048.95;1724977;82;20362;-85
2021/05/17 05:34:48;;;;;;;;;;;;;;;12.47;73.15;97033.63;1724655;82;26201;-86
2021/05/17 05:37:14;;;;;;;;;;;;;;;12.54;73.25;97030.73;1721266;81;25092;-85
2021/05/17 05:39:40;;;;;;;;;;;;;;;12.62;73.33;97029.94;1727287;82;20607;-86
2021/05/17 05:42:06;;;;;;;;;;;;;;;12.71;73.41;97031.62;1720103;82;24820;-85
2021/05/17 05:44:41;;;;;;;;;;;;;;;12.74;73.49;97033.14;1726997;81;22012;-85
2021/05/17 05:47:00;;;;;;;;;;;;;;;12.73;73.56;97028.37;1717864;82;26093;-86
2021/05/17 05:49:26;;;;;;;;;;;;;;;12.78;73.63;97033.98;1722189;83;20296;-86
2021/05/17 05:51:52;;;;;;;;;;;;;;;12.84;73.70;97032.05;1719209;82;20328;-85
2021/05/17 05:54:18;;;;;;;;;;;;;;;12.90;73.76;97031.92;1697028;84;24865;-86
2021/05/17 05:56:44;;;;;;;;;;;;;;;12.96;73.82;97029.98;1706040;83;21899;-86
2021/05/17 05:59:11;;;;;;;;;;;;;;;13.03;73.88;97034.13;1709754;83;25952;-86
2021/05/17 06:01:37;;;;;;;;;;;;;;;13.09;73.94;97035.62;1710199;82;20325;-85
2021/05/17 06:04:03;;;;;;;;;;;;;;;13.12;73.96;97037.98;1702538;84;20274;-85
2021/05/17 06:06:29;;;;;;;;;;;;;;;13.12;74.04;97029.27;1704932;83;24430;-85
2021/05/17 06:08:55;;;;;;;;;;;;;;;13.08;74.02;97030.05;1711540;83;21903;-85
2021/05/17 06:11:22;;;;;;;;;;;;;;;13.12;74.04;97033.21;1723241;82;26017;-85
2021/05/17 06:13:49;;;;;;;;;;;;;;;13.15;74.09;97037.65;1719939;83;24536;-85
2021/05/17 06:16:15;;;;;;;;;;;;;;;13.22;74.16;97031.28;1704493;83;20287;-85
2021/05/17 06:18:41;;;;;;;;;;;;;;;13.22;74.22;97032.59;1701089;84;24795;-85
2021/05/17 06:21:08;;;;;;;;;;;;;;;13.26;74.24;97033.92;1709482;83;21983;-85
2021/05/17 06:23:34;;;;;;;;;;;;;;;13.32;74.29;97031.98;1715808;83;26003;-85
2021/05/17 06:26:00;;;;;;;;;;;;;;;13.27;74.33;97021.95;1721797;82;25089;-85
2021/05/17 06:28:27;;;;;;;;;;;;;;;13.31;74.36;97021.95;1724870;81;20213;-85
2021/05/17 06:31:00;;;;;;;;;;;;;;;13.28;74.43;97020.14;1720535;82;25004;-85
2021/05/17 06:33:26;;;;;;;;;;;;;;;13.20;74.47;97019.61;1714313;83;22266;-85
2021/05/17 06:35:58;;;;;;;;;;;;;;;13.19;74.51;97016.67;1717835;82;26190;-85
2021/05/17 06:38:25;;;;;;;;;;;;;;;13.24;74.55;97013.08;1710687;82;24527;-85
2021/05/17 06:40:53;;;;;;;;;;;;;;;13.31;74.58;97014.07;1716170;83;20266;-85
2021/05/17 06:43:20;;;;;;;;;;;;;;;13.31;74.64;97014.07;1715795;82;24803;-86
2021/05/17 06:45:46;;;;;;;;;;;;;;;13.29;74.68;97017.86;1722866;82;21940;-85
2021/05/17 06:48:12;;;;;;;;;;;;;;;13.29;74.71;97020.48;1725221;81;26120;-86
2021/05/17 06:50:39;;;;;;;;;;;;;;;13.28;74.74;97014.89;1717506;83;24419;-85
2021/05/17 06:53:05;;;;;;;;;;;;;;;13.29;74.79;97017.37;1721284;83;20301;-85
2021/05/17 06:55:40;;;;;;;;;;;;;;;13.30;74.83;97016.39;1724779;83;24855;-86
2021/05/17 06:58:52;;;;;;;;;;;;;;;13.27;74.89;97017.18;1726235;83;22070;-86
2021/05/17 07:00:38;;;;;;;;;;;;;;;13.23;74.94;97016.69;1706099;82;26234;-86
2021/05/17 07:03:07;;;;;;;;;;;;;;;13.27;75.00;97016.69;1693083;83;20273;-85
2021/05/17 07:05:38;;;;;;;;;;;;;;;13.34;75.07;97014.27;1719366;82;20537;-86
2021/05/17 07:13:21;;;;;;;;;;;;;;;13.51;75.23;97012.02;1718868;83;25974;-85
2021/05/17 07:15:48;;;;;;;;;;;;;;;13.41;75.25;97011.34;1723873;82;24486;-86
2021/05/17 07:18:15;;;;;;;;;;;;;;;13.43;75.27;97012.47;1719822;82;20379;-85
2021/05/17 07:25:58;;;;;;;;;;;;;;;13.42;75.38;97006.39;1721465;83;26153;-85
2021/05/17 07:28:24;;;;;;;;;;;;;;;13.45;75.45;97002.63;1716242;81;24358;-85
2021/05/17 07:30:50;;;;;;;;;;;;;;;13.45;75.52;97003.46;1713736;83;20338;-85
2021/05/17 07:33:16;;;;;;;;;;;;;;;13.43;75.58;97005.41;1723220;83;24713;-86
2021/05/17 07:35:45;;;;;;;;;;;;;;;13.49;75.62;97006.58;1717650;82;22000;-86
2021/05/17 07:38:12;;;;;;;;;;;;;;;13.50;75.68;97007.74;1715514;82;25981;-86
2021/05/17 07:40:38;;;;;;;;;;;;;;;13.42;75.75;97003.77;1715447;82;25137;-86
2021/05/17 07:43:05;;;;;;;;;;;;;;;13.32;75.83;96998.64;1716623;83;20351;-85
2021/05/17 07:45:31;;;;;;;;;;;;;;;13.25;75.87;96998.14;1719263;81;24777;-85
2021/05/17 07:47:57;;;;;;;;;;;;;;;13.24;75.91;96996.00;1713075;82;22083;-85
2021/05/17 07:50:23;;;;;;;;;;;;;;;13.24;75.95;96996.49;1688452;83;21085;-85
2021/05/17 07:52:49;;;;;;;;;;;;;;;13.23;76.04;96997.47;1721943;81;24507;-85
2021/05/17 07:55:21;;;;;;;;;;;;;;;13.21;76.09;96996.80;1721067;83;20276;-85
2021/05/17 07:57:43;;;;;;;;;;;;;;;13.21;76.15;97002.05;1716181;83;24840;-85
2021/05/17 08:00:14;;;;;;;;;;;;;;;13.22;76.19;96997.95;1717743;83;22004;-85
2021/05/17 08:02:40;;;;;;;;;;;;;;;13.24;76.25;96997.32;1722484;83;26024;-85
2021/05/17 08:05:06;;;;;;;;;;;;;;;13.26;76.32;97001.08;1693219;83;24871;-85
2021/05/17 08:07:36;;;;;;;;;;;;;;;13.28;76.37;97001.75;1721106;83;20208;-85
2021/05/17 08:10:00;;;;;;;;;;;;;;;13.31;76.42;96994.37;1720454;83;24796;-85
2021/05/17 08:12:27;;;;;;;;;;;;;;;13.36;76.48;96999.17;1725466;82;22021;-85
2021/05/17 08:14:53;;;;;;;;;;;;;;;13.35;76.57;96998.83;1720259;83;26508;-85
2021/05/17 08:17:19;;;;;;;;;;;;;;;13.36;76.61;96997.86;1719934;81;24436;-85
2021/05/17 08:19:46;;;;;;;;;;;;;;;13.44;76.66;97003.61;1727024;82;20252;-85
2021/05/17 08:22:12;;;;;;;;;;;;;;;13.48;76.73;96999.67;1723827;83;24735;-85
2021/05/17 08:24:38;;;;;;;;;;;;;;;13.47;76.79;97000.19;1720942;82;20707;-86
2021/05/17 08:27:06;;;;;;;;;;;;;;;13.42;76.84;97001.13;1721524;83;25991;-86
2021/05/17 08:29:37;;;;;;;;;;;;;;;13.37;76.91;96997.67;1715555;83;24582;-85
2021/05/17 08:32:06;;;;;;;;;;;;;;;13.42;76.97;97001.13;1719417;83;20221;-85
2021/05/17 08:34:32;;;;;;;;;;;;;;;13.44;77.05;97002.30;1724768;82;24865;-86
2021/05/17 08:36:58;;;;;;;;;;;;;;;13.44;77.08;97003.61;1717160;82;20337;-85
2021/05/17 08:39:26;;;;;;;;;;;;;;;13.47;77.12;97005.45;1668274;83;22334;-86
2021/05/17 08:41:58;;;;;;;;;;;;;;;13.53;77.20;97005.30;1718747;82;24695;-85
2021/05/17 08:44:26;;;;;;;;;;;;;;;13.59;77.27;97005.45;1719870;83;20287;-85
2021/05/17 08:46:52;;;;;;;;;;;;;;;13.67;77.32;97000.23;1719180;83;24792;-86
2021/05/17 08:49:19;;;;;;;;;;;;;;;13.71;77.39;97000.72;1719195;81;22039;-85
2021/05/17 08:51:45;;;;;;;;;;;;;;;13.66;77.43;97006.95;1724023;83;26803;-85
2021/05/17 08:54:12;;;;;;;;;;;;;;;13.62;77.45;97004.33;1722741;82;24431;-86
2021/05/17 08:56:45;;;;;;;;;;;;;;;13.59;77.48;97005.45;1720470;83;20284;-86
2021/05/17 08:59:15;;;;;;;;;;;;;;;13.57;77.50;97003.50;1717970;83;24789;-86
2021/05/17 09:01:41;;;;;;;;;;;;;;;13.50;77.50;97006.91;1715164;83;22727;-86
2021/05/17 09:04:13;;;;;;;;;;;;;;;13.49;77.49;97008.72;1696889;83;22057;-86
2021/05/17 09:06:40;;;;;;;;;;;;;;;13.52;77.49;97002.34;1721432;82;24504;-86
2021/05/17 09:09:08;;;;;;;;;;;;;;;13.55;77.50;97000.20;1725191;82;20563;-86
2021/05/17 09:11:34;;;;;;;;;;;;;;;13.59;77.53;97001.52;1713012;83;24905;-86
2021/05/17 09:14:11;;;;;;;;;;;;;;;13.64;77.59;97001.02;1717759;83;22052;-86
2021/05/17 09:16:45;;;;;;;;;;;;;;;13.71;77.65;97000.72;1724781;83;26088;-86
2021/05/17 09:19:11;;;;;;;;;;;;;;;13.70;77.69;96995.95;1719317;81;24542;-86
2021/05/17 09:21:45;;;;;;;;;;;;;;;13.67;77.73;96998.91;1723316;82;20316;-86
2021/05/17 09:24:13;;;;;;;;;;;;;;;13.65;77.73;96998.24;1714671;82;24846;-86
2021/05/17 09:26:42;;;;;;;;;;;;;;;13.68;77.76;96997.94;1728203;81;20569;-86
2021/05/17 09:29:10;;;;;;;;;;;;;;;13.72;77.81;96999.74;1719003;83;26086;-86
2021/05/17 09:31:43;;;;;;;;;;;;;;;13.69;77.84;96999.56;1717787;82;24421;-86
2021/05/17 09:34:16;;;;;;;;;;;;;;;13.68;77.87;96995.31;1716913;82;20296;-86
2021/05/17 09:36:44;;;;;;;;;;;;;;;13.70;77.90;96993.81;1724372;82;24847;-86
2021/05/17 09:39:15;;;;;;;;;;;;;;;13.74;77.97;96995.98;1716924;82;22116;-86
2021/05/17 09:41:56;;;;;;;;;;;;;;;13.77;77.99;96996.13;1723170;81;25965;-86
2021/05/17 09:44:21;;;;;;;;;;;;;;;13.82;78.05;96993.34;1720966;81;24454;-86
2021/05/17 09:46:58;;;;;;;;;;;;;;;13.91;78.11;96992.06;1716467;82;20201;-85
2021/05/17 09:49:38;;;;;;;;;;;;;;;13.89;78.11;96989.58;1679172;84;26163;-86
2021/05/17 09:52:12;;;;;;;;;;;;;;;13.87;78.14;96986.28;1696460;82;21992;-86
2021/05/17 09:54:58;;;;;;;;;;;;;;;13.93;78.14;96987.44;1700046;82;26663;-86
2021/05/17 09:57:26;;;;;;;;;;;;;;;14.01;78.17;96986.14;1694582;82;24406;-86
2021/05/17 09:59:54;;;;;;;;;;;;;;;14.06;78.19;96987.79;1694404;83;20572;-85
2021/05/17 10:02:31;;;;;;;;;;;;;;;14.11;78.21;96982.86;1700432;83;24746;-86
2021/05/17 10:05:13;;;;;;;;;;;;;;;14.12;78.23;96981.38;1668901;84;20219;-86
2021/05/17 10:07:40;;;;;;;;;;;;;;;14.07;78.27;96981.02;1697098;83;26665;-86
2021/05/17 10:10:06;;;;;;;;;;;;;;;14.03;78.23;96981.52;1695098;83;24557;-86
2021/05/17 10:12:33;;;;;;;;;;;;;;;14.04;78.25;96981.37;1701873;83;20346;-86
2021/05/17 10:15:05;;;;;;;;;;;;;;;13.99;78.24;96975.78;1695170;83;24929;-86
2021/05/17 10:17:28;;;;;;;;;;;;;;;13.94;78.22;96973.31;1697782;84;22006;-86
2021/05/17 10:19:54;;;;;;;;;;;;;;;13.89;78.19;96977.75;1698861;82;26183;-86
2021/05/17 10:22:20;;;;;;;;;;;;;;;13.91;78.15;96976.28;1694069;83;24999;-86
2021/05/17 10:24:46;;;;;;;;;;;;;;;13.89;78.10;96981.69;1697115;83;20307;-86
2021/05/17 10:27:13;;;;;;;;;;;;;;;13.90;78.08;96981.20;1700375;82;24979;-87
2021/05/17 10:29:39;;;;;;;;;;;;;;;13.95;78.07;96988.11;1697874;83;22222;-85
2021/05/17 10:32:09;;;;;;;;;;;;;;;13.97;78.06;96984.80;1699165;83;26016;-86
2021/05/17 10:34:48;;;;;;;;;;;;;;;13.98;78.06;96983.33;1700911;82;24546;-87
2021/05/17 10:37:17;;;;;;;;;;;;;;;13.98;78.05;96980.70;1696379;83;20422;-87
2021/05/17 10:39:53;;;;;;;;;;;;;;;13.94;78.07;96982.02;1693808;83;24781;-87
2021/05/17 10:43:22;;;;;;;;;;;;;;;13.95;78.07;96974.95;1698422;83;22029;-86
2021/05/17 10:47:39;;;;;;;;;;;;;;;14.08;78.12;96977.91;1699076;83;24473;-87
2021/05/17 10:50:13;;;;;;;;;;;;;;;14.18;78.17;96981.22;1722875;81;20291;-87
2021/05/17 10:52:39;;;;;;;;;;;;;;;14.23;78.21;96977.11;1723709;81;24966;-87
2021/05/17 10:55:07;;;;;;;;;;;;;;;14.29;78.24;96976.94;1726599;81;22051;-86
2021/05/17 10:57:40;;;;;;;;;;;;;;;14.29;78.30;96975.63;1718404;81;25386;-87
2021/05/17 11:00:26;;;;;;;;;;;;;;;14.25;78.33;96971.66;1725283;81;24588;-87
2021/05/17 11:02:51;;;;;;;;;;;;;;;14.16;78.35;96967.39;1727203;81;20306;-87
2021/05/17 11:05:19;;;;;;;;;;;;;;;14.10;78.35;96960.16;1720263;82;24853;-87
2021/05/17 11:07:47;;;;;;;;;;;;;;;14.03;78.36;96962.62;1732742;81;21973;-87
2021/05/17 11:10:14;;;;;;;;;;;;;;;13.98;78.33;96970.67;1724687;82;25952;-88
2021/05/17 11:12:43;;;;;;;;;;;;;;;14.01;78.36;96969.88;1728430;81;24441;-87
2021/05/17 11:15:14;;;;;;;;;;;;;;;14.11;78.36;96964.44;1721630;82;20303;-87
2021/05/17 11:17:54;;;;;;;;;;;;;;;14.09;78.41;96963.77;1693744;83;25038;-87
2021/05/17 11:20:40;;;;;;;;;;;;;;;14.01;78.44;96962.47;1664744;85;21967;-86
2021/05/17 11:23:26;;;;;;;;;;;;;;;14.05;78.43;96960.66;1695967;82;26021;-87
2021/05/17 11:26:05;;;;;;;;;;;;;;;14.09;78.47;96955.88;1643430;84;24564;-87
2021/05/17 11:28:48;;;;;;;;;;;;;;;14.05;78.55;96959.34;1716620;82;20268;-87
2021/05/17 11:31:20;;;;;;;;;;;;;;;14.09;78.58;96958.51;1703614;82;25608;-87
2021/05/17 11:34:05;;;;;;;;;;;;;;;14.08;78.61;96954.23;1672277;83;20195;-87
2021/05/17 11:36:32;;;;;;;;;;;;;;;14.07;78.65;96959.19;1717896;83;25396;-87
2021/05/17 11:41:40;;;;;;;;;;;;;;;14.13;78.70;96963.27;1707707;82;20594;-87
2021/05/17 11:44:10;;;;;;;;;;;;;;;14.15;78.75;96967.88;1691592;83;20710;-87
2021/05/17 11:46:41;;;;;;;;;;;;;;;14.21;78.78;96961.14;1689887;83;22737;-86
2021/05/17 11:49:09;;;;;;;;;;;;;;;14.28;78.80;96958.19;1688641;83;26466;-88
2021/05/17 11:51:39;;;;;;;;;;;;;;;14.27;78.84;96958.34;1685693;83;24458;-87
2021/05/17 11:54:07;;;;;;;;;;;;;;;14.22;78.87;96960.98;1680669;83;20644;-88
2021/05/17 11:56:33;;;;;;;;;;;;;;;14.23;78.91;96963.12;1682109;84;24789;-87
2021/05/17 11:59:04;;;;;;;;;;;;;;;14.30;78.91;96963.25;1677302;84;21980;-87
2021/05/17 12:01:31;;;;;;;;;;;;;;;14.35;78.96;96957.82;1683839;83;26512;-87
2021/05/17 12:04:00;;;;;;;;;;;;;;;14.40;78.98;96960.02;1681475;83;24552;-87
2021/05/17 12:06:28;;;;;;;;;;;;;;;14.41;79.00;96953.73;1677280;83;20405;-87
2021/05/17 12:08:54;;;;;;;;;;;;;;;14.41;79.02;96958.51;1676727;84;24937;-87
2021/05/17 12:11:20;;;;;;;;;;;;;;;14.41;79.02;96954.56;1683163;83;20278;-87
2021/05/17 12:14:00;;;;;;;;;;;;;;;14.43;79.06;96959.66;1685732;83;25992;-87
2021/05/17 12:16:23;;;;;;;;;;;;;;;14.60;79.04;96959.97;1678855;84;25203;-87
2021/05/17 12:18:54;;;;;;;;;;;;;;;14.78;79.05;96961.08;1685583;84;20306;-86
2021/05/17 12:21:20;;;;;;;;;;;;;;;14.80;79.07;96961.22;1684955;83;25468;-86
2021/05/17 12:23:49;;;;;;;;;;;;;;;14.80;79.00;96964.34;1684471;84;21955;-87
2021/05/17 12:26:16;;;;;;;;;;;;;;;14.87;78.90;96962.69;1674671;83;26059;-86
2021/05/17 12:28:43;;;;;;;;;;;;;;;14.96;78.78;96965.61;1684869;84;25146;-87
2021/05/17 12:31:10;;;;;;;;;;;;;;;15.02;78.68;96971.52;1684867;83;20673;-87
2021/05/17 12:33:42;;;;;;;;;;;;;;;14.98;78.59;96974.17;1674574;84;25573;-86
2021/05/17 12:36:08;;;;;;;;;;;;;;;14.95;78.51;96966.10;1678638;84;22724;-86
2021/05/17 12:38:35;;;;;;;;;;;;;;;14.97;78.45;96968.08;1684270;83;25926;-87
2021/05/17 12:41:03;;;;;;;;;;;;;;;14.93;78.39;96966.79;1682281;83;24483;-86
2021/05/17 12:43:39;;;;;;;;;;;;;;;14.83;78.28;96967.98;1681877;84;20613;-86
2021/05/17 12:46:00;;;;;;;;;;;;;;;14.65;78.15;96963.73;1683453;83;24812;-87
2021/05/17 12:48:40;;;;;;;;;;;;;;;14.57;77.98;96961.11;1677331;84;21938;-86
2021/05/17 12:51:14;;;;;;;;;;;;;;;14.59;77.94;96961.78;1690816;83;25935;-87
2021/05/17 12:53:43;;;;;;;;;;;;;;;14.54;77.90;96958.83;1682625;84;26024;-87
2021/05/17 12:56:13;;;;;;;;;;;;;;;14.54;77.90;96959.31;1688244;83;20243;-87
2021/05/17 12:58:40;;;;;;;;;;;;;;;14.49;77.89;96961.14;1689520;83;24837;-86
2021/05/17 13:01:08;;;;;;;;;;;;;;;14.43;77.85;96959.17;1687829;83;22978;-86
2021/05/17 13:03:36;;;;;;;;;;;;;;;14.31;77.80;96965.73;1687919;83;25951;-87
2021/05/17 13:06:04;;;;;;;;;;;;;;;14.21;77.77;96971.17;1687099;83;24541;-86
2021/05/17 13:08:32;;;;;;;;;;;;;;;14.13;77.73;96969.02;1681823;83;20576;-86
2021/05/17 13:11:06;;;;;;;;;;;;;;;14.06;77.71;96963.62;1685342;84;24372;-86
2021/05/17 13:13:43;;;;;;;;;;;;;;;14.02;77.70;96963.59;1690454;83;21855;-86
2021/05/17 13:16:28;;;;;;;;;;;;;;;13.98;77.72;96964.09;1684873;83;26108;-86
2021/05/17 13:18:56;;;;;;;;;;;;;;;13.97;77.77;96961.95;1685609;83;25202;-86
2021/05/17 13:21:33;;;;;;;;;;;;;;;13.96;77.79;96956.39;1684945;83;20187;-86